»·PEaware :: DAL730 KSLC-KPDX

DAL730 :: KSLC-KPDX

FLIGHT INFORMATION

Flight Status: Arrived
Operator:
Delta Air Lines
More flights by this operator :: More flights under this callsign
Pilot: Joe P. (13940)
Aircraft: BOEING 737-700
(B737)
More flights by this aircraft type
Origin: KSLC Salt Lake City Intl
United States
Destination: KPDX Portland Intl
United States
More flights between these airports :: More routes between these airports
Route: CGULL1 TWF J15 BOI J163 BKE JOTBA HHOOD4
File this flight plan on PilotEdge
Remarks: KSEA -PBN / A1B1C1D1L1O1S1 NAV / RNVD1E2A1 DOF / 181205 REG / N389DA EET / KZSE0058 RVR / 200 PER / C
Altitude:
(Current/Filed)
380ft
Speed:
(Current/Filed)
445kts
Departed: 05-Dec-18 04:03 PM
Arrived: 05-Dec-18 05:46 PM
Distance/Time
Traveled:
546nm/1:43
Distance/Time
To Go:
Arrived

Flight Plot

Page will automatically refresh every two minutes.

Flight plan parsing failed; only flown route is shown


Map Options




Map Legend


Flown Route
Filed Route
Departure Airport
Arrival Airport
Navaid (VOR, NDB)
Fix

Horizontal Profiles

Position Reports

Time Latitude Longitude Heading Altitude Ground
Speed
05-Dec-18 14:54 40.788533 -111.980747 280 4235ft 0kts
05-Dec-18 14:55 40.788533 -111.980747 280 4235ft 0kts
05-Dec-18 14:56 40.788533 -111.980747 280 4235ft 0kts
05-Dec-18 14:57 40.788533 -111.980747 280 4235ft 0kts
05-Dec-18 14:58 40.788533 -111.980747 280 4235ft 0kts
05-Dec-18 14:59 40.788533 -111.980747 280 4235ft 0kts
05-Dec-18 15:00 40.788533 -111.980747 280 4235ft 0kts
05-Dec-18 15:01 40.788533 -111.980747 280 4235ft 0kts
05-Dec-18 15:02 40.788533 -111.980747 280 4235ft 0kts
05-Dec-18 15:02 40.788533 -111.980747 280 4235ft 0kts
05-Dec-18 15:04 40.788533 -111.980747 280 4235ft 0kts
05-Dec-18 15:04 40.788533 -111.980747 280 4235ft 0kts
05-Dec-18 15:06 40.788533 -111.980747 280 4235ft 0kts
05-Dec-18 15:06 40.788533 -111.980747 280 4235ft 0kts
05-Dec-18 15:08 40.788533 -111.980747 280 4235ft 0kts
05-Dec-18 15:08 40.788533 -111.980747 280 4235ft 0kts
05-Dec-18 15:09 40.788533 -111.980747 280 4235ft 0kts
05-Dec-18 15:10 40.788533 -111.980747 280 4235ft 0kts
05-Dec-18 15:11 40.788533 -111.980747 280 4235ft 0kts
05-Dec-18 15:12 40.788533 -111.980747 280 4235ft 0kts
05-Dec-18 15:13 40.788533 -111.980747 280 4235ft 0kts
05-Dec-18 15:14 40.788533 -111.980747 280 4235ft 0kts
05-Dec-18 15:15 40.788533 -111.980747 280 4235ft 0kts
05-Dec-18 15:16 40.788533 -111.980747 280 4235ft 0kts
05-Dec-18 15:17 40.788533 -111.980747 280 4235ft 0kts
05-Dec-18 15:18 40.788533 -111.980747 280 4235ft 0kts
05-Dec-18 15:19 40.788533 -111.980747 280 4235ft 0kts
05-Dec-18 15:20 40.788533 -111.980747 280 4235ft 0kts
05-Dec-18 15:21 40.788533 -111.980747 280 4235ft 0kts
05-Dec-18 15:22 40.788533 -111.980747 280 4235ft 0kts
05-Dec-18 15:23 40.788533 -111.980747 280 4235ft 0kts
05-Dec-18 15:24 40.788533 -111.980747 280 4235ft 0kts
05-Dec-18 15:25 40.788533 -111.980747 280 4235ft 0kts
05-Dec-18 15:26 40.788533 -111.980747 280 4235ft 0kts
05-Dec-18 15:27 40.788533 -111.980747 280 4235ft 0kts
05-Dec-18 15:28 40.788533 -111.980747 280 4235ft 0kts
05-Dec-18 15:29 40.788533 -111.980747 280 4235ft 0kts
05-Dec-18 15:30 40.788533 -111.980747 280 4235ft 0kts
05-Dec-18 15:31 40.788533 -111.980747 280 4235ft 0kts
05-Dec-18 15:32 40.788533 -111.980747 280 4235ft 0kts
05-Dec-18 15:33 40.788533 -111.980747 280 4235ft 0kts
05-Dec-18 15:34 40.788533 -111.980747 280 4235ft 0kts
05-Dec-18 15:35 40.788533 -111.980747 280 4235ft 0kts
05-Dec-18 15:36 40.788533 -111.980747 280 4235ft 0kts
05-Dec-18 15:37 40.788533 -111.980747 280 4235ft 0kts
05-Dec-18 15:38 40.788533 -111.980747 280 4235ft 0kts
05-Dec-18 15:39 40.788533 -111.980747 280 4235ft 0kts
05-Dec-18 15:40 40.788533 -111.980747 280 4235ft 0kts
05-Dec-18 15:41 40.788533 -111.980747 280 4235ft 0kts
05-Dec-18 15:42 40.788533 -111.980747 280 4235ft 0kts
05-Dec-18 15:43 40.788533 -111.980747 280 4235ft 0kts
05-Dec-18 15:44 40.788533 -111.980747 280 4235ft 0kts
05-Dec-18 15:45 40.788533 -111.980747 280 4235ft 0kts
05-Dec-18 15:46 40.788498 -111.980507 280 4235ft 2kts
05-Dec-18 15:47 40.788375 -111.979671 280 4235ft 2kts
05-Dec-18 15:48 40.788362 -111.979584 280 4235ft 0kts
05-Dec-18 15:49 40.788362 -111.979584 280 4235ft 0kts
05-Dec-18 15:50 40.788362 -111.979584 280 4235ft 0kts
05-Dec-18 15:51 40.788362 -111.979584 280 4235ft 0kts
05-Dec-18 15:52 40.788362 -111.979584 280 4235ft 0kts
05-Dec-18 15:53 40.788363 -111.979585 280 4235ft 0kts
05-Dec-18 15:54 40.788363 -111.979586 280 4235ft 0kts
05-Dec-18 15:55 40.789708 -111.978264 84 4235ft 16kts
05-Dec-18 15:56 40.792708 -111.977451 355 4235ft 13kts
05-Dec-18 15:57 40.797781 -111.978008 354 4235ft 21kts
05-Dec-18 15:58 40.803346 -111.978675 356 4235ft 19kts
05-Dec-18 15:59 40.807495 -111.978509 82 4235ft 4kts
05-Dec-18 16:00 40.807500 -111.978460 82 4235ft 0kts
05-Dec-18 16:01 40.807525 -111.977966 93 4235ft 9kts
05-Dec-18 16:02 40.803361 -111.976433 177 4235ft 67kts
05-Dec-18 16:03 40.758638 -111.980411 229 6526ft 188kts
05-Dec-18 16:04 40.779470 -112.045860 307 8271ft 254kts
05-Dec-18 16:05 40.825589 -112.121372 307 11083ft 263kts
05-Dec-18 16:06 40.874993 -112.193588 307 14157ft 270kts
05-Dec-18 16:07 40.929961 -112.264366 313 16914ft 282kts
05-Dec-18 16:08 40.990581 -112.334104 313 19421ft 293kts
05-Dec-18 16:09 41.053182 -112.406543 312 21713ft 305kts
05-Dec-18 16:10 41.123347 -112.470988 322 23945ft 314kts
05-Dec-18 16:11 41.197067 -112.536595 316 25828ft 321kts
05-Dec-18 16:12 41.267940 -112.609691 314 27813ft 321kts
05-Dec-18 16:13 41.328895 -112.693897 306 29665ft 314kts
05-Dec-18 16:14 41.387160 -112.779327 305 31429ft 309kts
05-Dec-18 16:15 41.443282 -112.864199 303 33001ft 303kts
05-Dec-18 16:16 41.498268 -112.948573 303 34415ft 299kts
05-Dec-18 16:17 41.552836 -113.032612 304 35571ft 299kts
05-Dec-18 16:18 41.609688 -113.120437 304 35880ft 327kts
05-Dec-18 16:19 41.672188 -113.216497 305 36142ft 359kts
05-Dec-18 16:20 41.740586 -113.322159 306 36379ft 390kts
05-Dec-18 16:21 41.813907 -113.436074 306 36578ft 417kts
05-Dec-18 16:22 41.891159 -113.556649 307 37144ft 430kts
05-Dec-18 16:23 41.969064 -113.678566 307 38145ft 430kts
05-Dec-18 16:24 42.047200 -113.801304 307 38153ft 429kts
05-Dec-18 16:25 42.124478 -113.923773 306 38154ft 430kts
05-Dec-18 16:26 42.201919 -114.046528 307 38152ft 430kts
05-Dec-18 16:27 42.279264 -114.169159 307 38154ft 430kts
05-Dec-18 16:28 42.356795 -114.292035 307 38157ft 430kts
05-Dec-18 16:29 42.434001 -114.415743 307 38159ft 429kts
05-Dec-18 16:30 42.511596 -114.538853 308 38160ft 430kts
05-Dec-18 16:31 42.590372 -114.660785 308 38167ft 430kts
05-Dec-18 16:32 42.668831 -114.783030 308 38172ft 430kts
05-Dec-18 16:33 42.747654 -114.905707 309 38179ft 430kts
05-Dec-18 16:34 42.826324 -115.028533 309 38183ft 430kts
05-Dec-18 16:35 42.904735 -115.151810 309 38190ft 431kts
05-Dec-18 16:36 42.982932 -115.275314 309 38201ft 430kts
05-Dec-18 16:37 43.061026 -115.399224 309 38215ft 430kts
05-Dec-18 16:38 43.139171 -115.523762 309 38226ft 431kts
05-Dec-18 16:39 43.216875 -115.648148 309 38229ft 431kts
05-Dec-18 16:40 43.294704 -115.773256 309 38228ft 430kts
05-Dec-18 16:41 43.370882 -115.895848 309 38226ft 431kts
05-Dec-18 16:42 43.448218 -116.021228 309 38226ft 431kts
05-Dec-18 16:43 43.525667 -116.147687 309 38228ft 432kts
05-Dec-18 16:44 43.611425 -116.263826 317 38231ft 432kts
05-Dec-18 16:45 43.701232 -116.373773 317 38243ft 431kts
05-Dec-18 16:46 43.790885 -116.484233 317 38251ft 431kts
05-Dec-18 16:47 43.880910 -116.594743 317 38266ft 432kts
05-Dec-18 16:48 43.970615 -116.705559 317 38274ft 432kts
05-Dec-18 16:49 44.060191 -116.816893 318 38282ft 431kts
05-Dec-18 16:50 44.149739 -116.928683 318 38283ft 431kts
05-Dec-18 16:51 44.238863 -117.040435 318 38276ft 432kts
05-Dec-18 16:52 44.328275 -117.153049 318 38262ft 432kts
05-Dec-18 16:53 44.417353 -117.265732 318 38244ft 433kts
05-Dec-18 16:54 44.506711 -117.379260 317 38227ft 433kts
05-Dec-18 16:55 44.595653 -117.492752 317 38216ft 433kts
05-Dec-18 16:56 44.684793 -117.606568 317 38210ft 433kts
05-Dec-18 16:57 44.773727 -117.721311 317 38209ft 433kts
05-Dec-18 16:58 44.845281 -117.854607 287 38209ft 437kts
05-Dec-18 17:00 44.868932 -118.023225 281 38213ft 439kts
05-Dec-18 17:01 44.890558 -118.193299 281 38217ft 440kts
05-Dec-18 17:02 44.912380 -118.362790 282 38216ft 439kts
05-Dec-18 17:03 44.934237 -118.532445 281 38225ft 440kts
05-Dec-18 17:04 44.955642 -118.702556 281 38226ft 440kts
05-Dec-18 17:05 44.976769 -118.872837 281 38229ft 440kts
05-Dec-18 17:06 44.997624 -119.043407 281 38267ft 440kts
05-Dec-18 17:07 45.018196 -119.213930 281 38288ft 440kts
05-Dec-18 17:08 45.038486 -119.384366 281 38286ft 440kts
05-Dec-18 17:09 45.058549 -119.555142 281 38296ft 441kts
05-Dec-18 17:10 45.078379 -119.726289 281 38305ft 440kts
05-Dec-18 17:11 45.097981 -119.897714 280 38316ft 440kts
05-Dec-18 17:12 45.117275 -120.068680 281 37248ft 438kts
05-Dec-18 17:13 45.136702 -120.240506 280 34350ft 446kts
05-Dec-18 17:14 45.155699 -120.415866 280 31458ft 449kts
05-Dec-18 17:15 45.191085 -120.581898 299 29074ft 435kts
05-Dec-18 17:16 45.248362 -120.730773 301 26854ft 424kts
05-Dec-18 17:17 45.304149 -120.875832 300 24711ft 415kts
05-Dec-18 17:18 45.358382 -121.018529 300 22633ft 401kts
05-Dec-18 17:18 45.401833 -121.132930 300 20986ft 391kts
05-Dec-18 17:20 45.447734 -121.297774 287 18727ft 379kts
05-Dec-18 17:21 45.474898 -121.437510 288 17246ft 350kts
05-Dec-18 17:22 45.501018 -121.569250 287 15685ft 341kts
05-Dec-18 17:23 45.525847 -121.696530 286 14664ft 319kts
05-Dec-18 17:23 45.532882 -121.800049 274 13687ft 313kts
05-Dec-18 17:24 45.536985 -121.922722 274 12466ft 306kts
05-Dec-18 17:25 45.554839 -122.038945 288 11264ft 298kts
05-Dec-18 17:27 45.582533 -122.169636 287 10069ft 286kts
05-Dec-18 17:27 45.601283 -122.260230 286 9150ft 291kts
05-Dec-18 17:28 45.624402 -122.372425 287 7946ft 294kts
05-Dec-18 17:29 45.649426 -122.482888 297 6792ft 289kts
05-Dec-18 17:30 45.685594 -122.583568 297 5738ft 281kts
05-Dec-18 17:31 45.718730 -122.681452 297 5006ft 256kts
05-Dec-18 17:32 45.747646 -122.763671 300 4966ft 215kts
05-Dec-18 17:33 45.775374 -122.839441 299 5001ft 215kts
05-Dec-18 17:34 45.802281 -122.912984 299 4993ft 194kts
05-Dec-18 17:35 45.794055 -122.974939 198 4172ft 188kts
05-Dec-18 17:36 45.748311 -122.967583 159 3984ft 158kts
05-Dec-18 17:37 45.721287 -122.920346 117 4031ft 152kts
05-Dec-18 17:38 45.701867 -122.870841 116 4004ft 138kts
05-Dec-18 17:39 45.682803 -122.821810 116 3501ft 140kts
05-Dec-18 17:40 45.663783 -122.772855 117 2758ft 142kts
05-Dec-18 17:41 45.644916 -122.724335 117 2011ft 135kts
05-Dec-18 17:42 45.627003 -122.678297 116 1309ft 130kts
05-Dec-18 17:43 45.609556 -122.633486 116 624ft 128kts
05-Dec-18 17:44 45.592089 -122.588635 119 26ft 110kts
05-Dec-18 17:45 45.588988 -122.581913 206 26ft 0kts
05-Dec-18 17:46 45.588986 -122.581914 206 26ft 0kts
05-Dec-18 17:47 45.587999 -122.582720 209 26ft 9kts
05-Dec-18 17:48 45.589094 -122.586790 298 26ft 19kts
05-Dec-18 17:49 45.591454 -122.592965 298 26ft 17kts
05-Dec-18 17:50 45.591268 -122.594135 206 26ft 0kts
05-Dec-18 17:51 45.591268 -122.594135 206 26ft 0kts
05-Dec-18 17:52 45.591268 -122.594135 206 26ft 0kts
05-Dec-18 17:53 45.591268 -122.594135 206 26ft 0kts
05-Dec-18 17:54 45.591268 -122.594135 206 26ft 0kts
05-Dec-18 17:55 45.591268 -122.594135 206 26ft 0kts
05-Dec-18 17:56 45.591268 -122.594135 206 26ft 0kts
05-Dec-18 17:57 45.591268 -122.594135 206 26ft 0kts
05-Dec-18 17:58 45.591268 -122.594135 206 26ft 0kts
05-Dec-18 17:59 45.591268 -122.594135 206 26ft 0kts
05-Dec-18 18:00 45.591268 -122.594135 206 26ft 0kts

Navigation Log

Ident Type
Flight plan parsing failed, navigation log unavailable